createdAt,value
2022-11-12T00:08:19.074Z,73.27
2022-11-12T00:18:40.817Z,73.04
2022-11-12T00:29:04.073Z,73.24
2022-11-12T00:39:25.932Z,71.61
2022-11-12T00:49:49.012Z,73.33
2022-11-12T01:00:17.393Z,73.04
2022-11-12T01:10:40.047Z,73.41
2022-11-12T01:21:03.024Z,74.45
2022-11-12T01:31:28.328Z,74.15
2022-11-12T01:41:50.235Z,73.54
2022-11-12T01:52:18.516Z,73.38
2022-11-12T02:02:41.478Z,73.33
2022-11-12T02:13:22.114Z,74.04
2022-11-12T02:23:45.263Z,73.41
2022-11-12T02:34:06.756Z,73.01
2022-11-12T02:44:31.298Z,72.58
2022-11-12T02:54:53.450Z,73.30
2022-11-12T03:05:16.279Z,71.76
2022-11-12T03:15:37.843Z,72.44
2022-11-12T03:26:04.836Z,73.08
2022-11-12T03:36:26.761Z,72.52
2022-11-12T03:46:50.042Z,73.54
2022-11-12T03:57:12.490Z,73.74
2022-11-12T04:07:52.922Z,73.17
2022-11-12T04:18:32.285Z,73.58
2022-11-12T04:29:12.934Z,72.86
2022-11-12T04:39:34.902Z,72.41
2022-11-12T04:49:57.936Z,72.62
2022-11-12T05:00:20.031Z,72.93
2022-11-12T05:10:43.214Z,72.26
2022-11-12T05:21:25.200Z,72.61
2022-11-12T05:31:48.666Z,71.80
2022-11-12T05:42:13.497Z,73.36
2022-11-12T05:52:37.384Z,73.09
2022-11-12T06:02:59.424Z,73.78
2022-11-12T06:13:24.232Z,75.08
2022-11-12T06:23:46.715Z,75.10
2022-11-12T06:34:10.061Z,75.65
2022-11-12T06:44:31.534Z,76.09
2022-11-12T06:54:54.960Z,75.71
2022-11-12T07:05:16.800Z,76.02
2022-11-12T07:15:39.954Z,76.57
2022-11-12T07:26:04.096Z,76.18
2022-11-12T07:36:28.018Z,78.54
2022-11-12T07:46:49.570Z,79.03
2022-11-12T07:57:12.930Z,79.76
2022-11-12T08:07:34.553Z,79.92
2022-11-12T08:17:57.523Z,79.59
2022-11-12T08:28:19.156Z,78.85
2022-11-12T08:38:43.059Z,78.51
2022-11-12T08:49:07.145Z,79.00
2022-11-12T08:59:30.439Z,77.91
2022-11-12T09:09:52.092Z,77.42
2022-11-12T09:20:15.807Z,77.13
2022-11-12T09:30:38.305Z,75.78
2022-11-12T09:41:16.249Z,76.13
2022-11-12T09:51:42.659Z,74.98
2022-11-12T10:02:26.273Z,74.56
2022-11-12T10:13:07.008Z,74.15
2022-11-12T10:23:42.368Z,73.69
2022-11-12T10:34:16.117Z,73.03
2022-11-12T10:44:40.859Z,72.51
2022-11-12T10:55:08.860Z,71.01
2022-11-12T11:05:35.629Z,71.48
2022-11-12T11:16:01.917Z,70.88
2022-11-12T11:26:33.950Z,70.19
2022-11-12T11:37:02.594Z,69.29
2022-11-12T11:47:57.686Z,69.28
2022-11-12T11:58:40.762Z,67.24
2022-11-12T12:09:24.904Z,66.79
2022-11-12T12:19:58.757Z,69.45
2022-11-12T12:30:24.917Z,64.76
2022-11-12T12:40:50.130Z,65.85
2022-11-12T12:51:14.288Z,64.78
2022-11-12T13:01:37.485Z,65.27
2022-11-12T13:12:18.228Z,64.59
2022-11-12T13:22:52.577Z,64.80
2022-11-12T13:33:27.208Z,64.35
2022-11-12T13:43:49.904Z,63.84
2022-11-12T13:54:36.239Z,64.46
2022-11-12T14:04:58.780Z,64.89
2022-11-12T14:15:43.947Z,65.46
2022-11-12T14:26:05.681Z,65.10
2022-11-12T14:36:30.770Z,65.50
2022-11-12T14:46:55.837Z,65.64
2022-11-12T14:57:24.169Z,65.88
2022-11-12T15:07:55.217Z,66.66
2022-11-12T15:18:20.580Z,67.47
2022-11-12T15:28:42.448Z,68.19
2022-11-12T15:39:14.473Z,68.23
2022-11-12T15:49:36.173Z,68.41
2022-11-12T16:00:07.865Z,68.60
2022-11-12T16:10:30.477Z,68.90
2022-11-12T16:20:53.636Z,68.93
2022-11-12T16:31:15.941Z,69.11
2022-11-12T16:41:39.068Z,68.97
2022-11-12T16:52:00.690Z,69.13
2022-11-12T17:02:23.600Z,68.83
2022-11-12T17:12:49.245Z,69.76
2022-11-12T17:23:12.097Z,69.53
2022-11-12T17:33:34.624Z,68.69
2022-11-12T17:43:58.172Z,69.29
2022-11-12T17:54:20.000Z,69.73
2022-11-12T18:04:43.065Z,69.83
2022-11-12T18:15:05.275Z,69.98
2022-11-12T18:25:28.895Z,70.38
2022-11-12T18:36:01.464Z,71.75
2022-11-12T18:46:25.056Z,72.21
2022-11-12T18:56:47.887Z,73.17
2022-11-12T19:07:10.618Z,72.33
2022-11-12T19:17:32.926Z,72.46
2022-11-12T19:27:56.055Z,73.39
2022-11-12T19:38:17.689Z,73.01
2022-11-12T19:48:40.976Z,72.63
2022-11-12T19:59:02.968Z,72.27
2022-11-12T20:09:26.021Z,72.53
2022-11-12T20:19:47.699Z,71.25
2022-11-12T20:30:11.989Z,71.08
2022-11-12T20:40:34.133Z,71.12
2022-11-12T20:51:22.544Z,70.92
2022-11-12T21:01:45.975Z,70.39
2022-11-12T21:12:09.111Z,70.05
2022-11-12T21:22:30.693Z,70.55
2022-11-12T21:32:53.631Z,70.12
2022-11-12T21:43:15.613Z,70.16
2022-11-12T21:53:39.518Z,70.02
2022-11-12T22:04:05.122Z,70.85
2022-11-12T22:14:28.413Z,70.75
2022-11-12T22:24:50.187Z,70.71
2022-11-12T22:35:13.401Z,71.07
2022-11-12T22:45:36.253Z,71.64
2022-11-12T22:56:04.145Z,72.12
2022-11-12T23:06:26.956Z,71.43
2022-11-12T23:16:50.050Z,71.21
2022-11-12T23:27:11.707Z,73.68
2022-11-12T23:37:34.870Z,73.92
2022-11-12T23:47:57.325Z,73.23
2022-11-12T23:58:20.253Z,72.44
